Time;durP1;ratioP1;P1;durP2;ratioP2;P2;SDS_P1;SDS_P2;PMS_P1;PMS_P2;Temp;Humidity;BMP_temperature;BMP_pressure;BME280_temperature;BME280_humidity;BME280_pressure;Samples;Min_cycle;Max_cycle;Signal;HPM_P1;HPM_P2
2022/04/28 00:00:30;;;;;;;;;;;;;;;15.23;93.45;100001.03;5061624;28;19962;-37
2022/04/28 00:02:55;;;;;;;;;;;;;;;15.18;93.41;100001.19;5062838;28;19955;-37
2022/04/28 00:05:21;;;;;;;;;;;;;;;15.35;93.60;100002.34;5062787;28;19970;-37
2022/04/28 00:07:47;;;;;;;;;;;;;;;15.24;94.04;100000.16;5061614;28;19920;-37
2022/04/28 00:10:12;;;;;;;;;;;;;;;15.29;93.82;99999.97;5062785;28;19951;-37
2022/04/28 00:12:37;;;;;;;;;;;;;;;15.31;93.86;100005.97;5061749;28;19927;-37
2022/04/28 00:15:03;;;;;;;;;;;;;;;15.17;94.48;100014.25;5059990;28;19928;-37
2022/04/28 00:17:28;;;;;;;;;;;;;;;15.25;95.13;100012.22;5063379;28;19931;-37
2022/04/28 00:19:53;;;;;;;;;;;;;;;15.23;94.73;100014.00;5063314;28;20023;-37
2022/04/28 00:22:19;;;;;;;;;;;;;;;15.24;93.74;100013.13;5061826;28;20519;-37
2022/04/28 00:24:44;;;;;;;;;;;;;;;15.32;93.60;100008.50;5060332;28;19920;-37
2022/04/28 00:27:09;;;;;;;;;;;;;;;15.30;93.52;100012.88;5061923;28;20834;-37
2022/04/28 00:29:35;;;;;;;;;;;;;;;15.22;93.34;100007.13;5064857;28;19973;-37
2022/04/28 00:32:00;;;;;;;;;;;;;;;14.86;94.79;100020.44;5060150;28;19943;-37
2022/04/28 00:34:25;;;;;;;;;;;;;;;14.54;96.64;100024.06;5063145;28;19924;-38
2022/04/28 00:36:50;;;;;;;;;;;;;;;14.44;97.91;100031.28;5060051;28;19974;-37
2022/04/28 00:39:16;;;;;;;;;;;;;;;14.19;98.84;100024.28;5068232;28;19920;-37
2022/04/28 00:41:41;;;;;;;;;;;;;;;14.39;99.13;100020.19;5062767;28;20696;-37
2022/04/28 00:44:10;;;;;;;;;;;;;;;14.41;98.26;100015.81;5061388;28;20164;-37
2022/04/28 00:46:36;;;;;;;;;;;;;;;14.73;97.56;100013.97;5063798;28;20745;-37
2022/04/28 00:51:45;;;;;;;;;;;;;;;14.73;97.16;100014.81;5064506;28;19980;-37
2022/04/28 00:54:10;;;;;;;;;;;;;;;14.70;97.20;100012.34;5063310;28;19924;-37
2022/04/28 00:56:36;;;;;;;;;;;;;;;14.70;97.25;100014.09;5062375;28;20026;-37
2022/04/28 00:59:02;;;;;;;;;;;;;;;14.59;97.57;100012.66;5060013;28;20654;-37
2022/04/28 01:01:28;;;;;;;;;;;;;;;14.64;97.29;100017.72;5060309;28;19919;-37
2022/04/28 01:03:53;;;;;;;;;;;;;;;14.75;96.89;100017.38;5058881;28;19920;-37
2022/04/28 01:06:18;;;;;;;;;;;;;;;14.40;98.08;100016.72;5062817;28;20641;-37
2022/04/28 01:08:43;;;;;;;;;;;;;;;14.32;99.19;100023.88;5063273;28;20271;-37
2022/04/28 01:11:09;;;;;;;;;;;;;;;14.08;100.00;100021.16;5064349;28;19932;-37
2022/04/28 01:13:34;;;;;;;;;;;;;;;14.42;99.17;100020.13;5060279;28;19932;-37
2022/04/28 01:15:59;;;;;;;;;;;;;;;14.51;98.27;100019.84;5062832;28;19931;-37
2022/04/28 01:18:25;;;;;;;;;;;;;;;14.58;97.95;100018.75;5060000;28;19920;-37
2022/04/28 01:20:50;;;;;;;;;;;;;;;14.40;99.57;100027.09;5062861;28;19924;-37
2022/04/28 01:23:15;;;;;;;;;;;;;;;14.15;98.97;100030.44;5059556;28;19920;-37
2022/04/28 01:25:41;;;;;;;;;;;;;;;14.29;99.63;100026.56;5062168;28;20729;-37
2022/04/28 01:28:06;;;;;;;;;;;;;;;14.29;98.92;100031.75;5063053;28;20432;-37
2022/04/28 01:30:33;;;;;;;;;;;;;;;14.31;99.15;100027.38;5062560;28;19920;-37
2022/04/28 01:32:59;;;;;;;;;;;;;;;14.20;99.44;100033.72;5062248;28;19959;-37
2022/04/28 01:35:24;;;;;;;;;;;;;;;14.20;99.49;100031.13;5061062;28;20003;-37
2022/04/28 01:37:50;;;;;;;;;;;;;;;14.16;99.96;100039.91;5065150;28;19962;-37
2022/04/28 01:40:16;;;;;;;;;;;;;;;14.17;98.83;100030.41;5065806;28;19956;-37
2022/04/28 01:42:42;;;;;;;;;;;;;;;14.10;99.65;100034.06;5064079;28;20402;-38
2022/04/28 01:45:08;;;;;;;;;;;;;;;14.10;99.65;100036.66;5068994;28;20058;-37
2022/04/28 01:47:33;;;;;;;;;;;;;;;14.07;100.00;100029.84;5064903;28;20407;-37
2022/04/28 01:49:59;;;;;;;;;;;;;;;14.06;100.00;100037.63;5070053;28;19920;-37
2022/04/28 01:55:08;;;;;;;;;;;;;;;13.98;100.00;100045.63;5065612;28;19976;-37
2022/04/28 01:57:33;;;;;;;;;;;;;;;13.85;100.00;100044.31;5064879;28;19919;-37
2022/04/28 01:59:58;;;;;;;;;;;;;;;13.67;100.00;100041.31;5063886;28;20255;-37
2022/04/28 02:02:24;;;;;;;;;;;;;;;13.71;100.00;100040.34;5061406;28;19916;-37
2022/04/28 02:04:52;;;;;;;;;;;;;;;13.65;100.00;100043.09;5063977;28;21573;-37
2022/04/28 02:07:17;;;;;;;;;;;;;;;13.63;100.00;100038.88;5062054;28;20443;-37
2022/04/28 02:09:43;;;;;;;;;;;;;;;13.43;100.00;100044.59;5065629;28;19920;-37
2022/04/28 02:12:09;;;;;;;;;;;;;;;13.36;100.00;100046.47;5065171;28;19924;-37
2022/04/28 02:14:34;;;;;;;;;;;;;;;13.42;100.00;100046.31;5061814;28;19935;-38
2022/04/28 02:17:00;;;;;;;;;;;;;;;13.32;100.00;100040.56;5064797;28;20925;-37
2022/04/28 02:19:25;;;;;;;;;;;;;;;13.33;100.00;100044.84;5064719;28;19920;-37
2022/04/28 02:21:51;;;;;;;;;;;;;;;13.29;100.00;100048.38;5064829;28;19927;-37
2022/04/28 02:24:16;;;;;;;;;;;;;;;13.18;100.00;100051.25;5066674;28;19927;-37
2022/04/28 02:26:41;;;;;;;;;;;;;;;13.21;100.00;100052.06;5065765;28;19920;-37
2022/04/28 02:29:06;;;;;;;;;;;;;;;13.30;100.00;100055.28;5064703;28;19966;-37
2022/04/28 02:31:31;;;;;;;;;;;;;;;13.17;100.00;100048.69;5063648;28;19920;-37
2022/04/28 02:33:57;;;;;;;;;;;;;;;13.15;100.00;100048.72;5063357;28;19923;-37
2022/04/28 02:36:24;;;;;;;;;;;;;;;13.11;100.00;100051.41;5065910;28;19922;-37
2022/04/28 02:38:50;;;;;;;;;;;;;;;13.09;100.00;100040.25;5064250;28;19920;-37
2022/04/28 02:41:20;;;;;;;;;;;;;;;13.01;100.00;100044.78;5061011;28;19920;-37
2022/04/28 02:43:45;;;;;;;;;;;;;;;12.78;100.00;100043.63;5064017;28;19955;-37
2022/04/28 02:46:10;;;;;;;;;;;;;;;12.80;100.00;100052.19;5061983;28;20074;-37
2022/04/28 02:48:36;;;;;;;;;;;;;;;12.87;100.00;100050.31;5062944;28;19931;-37
2022/04/28 02:51:01;;;;;;;;;;;;;;;12.94;100.00;100054.44;5066390;28;20388;-37
2022/04/28 02:53:26;;;;;;;;;;;;;;;12.79;100.00;100050.47;5061405;28;19924;-37
2022/04/28 02:55:52;;;;;;;;;;;;;;;12.84;100.00;100052.94;5065336;28;19924;-37
2022/04/28 02:58:17;;;;;;;;;;;;;;;12.65;100.00;100057.72;5067649;28;19921;-37
2022/04/28 03:00:42;;;;;;;;;;;;;;;12.68;100.00;100049.88;5065957;28;20351;-37
2022/04/28 03:03:07;;;;;;;;;;;;;;;12.74;100.00;100047.16;5062068;28;19916;-37
2022/04/28 03:10:46;;;;;;;;;;;;;;;12.45;100.00;100048.72;5062598;28;19930;-37
2022/04/28 03:11:02;;;;;;;;;;;;;;;12.38;100.00;100049.72;5061502;28;20017;-37
2022/04/28 03:13:27;;;;;;;;;;;;;;;12.53;100.00;100048.53;5065070;28;20034;-37
2022/04/28 03:15:52;;;;;;;;;;;;;;;12.31;100.00;100053.31;5065905;28;19919;-37
2022/04/28 03:18:18;;;;;;;;;;;;;;;12.24;100.00;100057.78;5061071;28;19959;-37
2022/04/28 03:20:43;;;;;;;;;;;;;;;12.45;100.00;100060.75;5063559;28;19920;-37
2022/04/28 03:23:11;;;;;;;;;;;;;;;12.34;100.00;100051.53;5065744;28;19920;-37
2022/04/28 03:25:36;;;;;;;;;;;;;;;12.40;100.00;100052.28;5062140;28;19973;-37
2022/04/28 03:28:01;;;;;;;;;;;;;;;12.12;100.00;100060.63;5060029;28;19919;-37
2022/04/28 03:30:27;;;;;;;;;;;;;;;11.88;100.00;100064.56;5062849;28;19923;-37
2022/04/28 03:32:52;;;;;;;;;;;;;;;11.68;100.00;100067.53;5065505;28;20902;-37
2022/04/28 03:35:17;;;;;;;;;;;;;;;11.93;100.00;100065.34;5065696;28;19924;-37
2022/04/28 03:37:47;;;;;;;;;;;;;;;11.92;100.00;100058.44;5065461;28;19920;-37
2022/04/28 03:40:12;;;;;;;;;;;;;;;12.08;100.00;100066.72;5060749;28;20657;-37
2022/04/28 03:42:37;;;;;;;;;;;;;;;11.90;100.00;100063.63;5060164;28;19916;-37
2022/04/28 03:45:03;;;;;;;;;;;;;;;11.53;100.00;100068.66;5062361;28;19926;-37
2022/04/28 03:47:36;;;;;;;;;;;;;;;11.69;100.00;100066.63;5062850;28;19927;-37
2022/04/28 03:50:02;;;;;;;;;;;;;;;11.75;100.00;100068.25;5062017;28;19925;-37
2022/04/28 03:52:27;;;;;;;;;;;;;;;11.48;100.00;100071.31;5060851;28;19956;-37
2022/04/28 03:54:53;;;;;;;;;;;;;;;11.55;100.00;100060.88;5059476;28;20026;-37
2022/04/28 03:57:18;;;;;;;;;;;;;;;11.30;100.00;100059.59;5062367;28;19958;-37
2022/04/28 03:59:43;;;;;;;;;;;;;;;11.32;100.00;100063.91;5062365;28;19963;-46
2022/04/28 04:02:08;;;;;;;;;;;;;;;11.09;100.00;100065.16;5064375;28;19927;-46
2022/04/28 04:04:34;;;;;;;;;;;;;;;11.09;100.00;100067.72;5062476;28;19921;-46
2022/04/28 04:06:59;;;;;;;;;;;;;;;11.60;100.00;100062.50;5062696;28;19955;-47
2022/04/28 04:09:24;;;;;;;;;;;;;;;11.39;100.00;100066.31;5064632;28;19916;-49
2022/04/28 04:11:49;;;;;;;;;;;;;;;11.48;100.00;100067.88;5063258;28;19959;-46
2022/04/28 04:14:15;;;;;;;;;;;;;;;11.51;100.00;100068.66;5062813;28;19935;-48
2022/04/28 04:16:40;;;;;;;;;;;;;;;11.50;100.00;100072.13;5061372;28;19931;-46
2022/04/28 04:19:05;;;;;;;;;;;;;;;11.13;100.00;100074.53;5058644;28;20335;-48
2022/04/28 04:21:31;;;;;;;;;;;;;;;11.12;100.00;100077.97;5063482;28;19921;-49
2022/04/28 04:23:57;;;;;;;;;;;;;;;10.76;100.00;100077.69;5061151;28;19916;-47
2022/04/28 04:26:22;;;;;;;;;;;;;;;10.57;100.00;100073.69;5062777;28;19920;-46
2022/04/28 04:28:47;;;;;;;;;;;;;;;11.15;100.00;100075.31;5060834;28;19942;-47
2022/04/28 04:33:56;;;;;;;;;;;;;;;11.79;100.00;100077.59;5061387;28;20865;-49
2022/04/28 04:36:21;;;;;;;;;;;;;;;11.91;100.00;100080.84;5061081;28;19920;-49
2022/04/28 04:38:46;;;;;;;;;;;;;;;11.78;100.00;100078.50;5061513;28;19912;-46
2022/04/28 04:41:12;;;;;;;;;;;;;;;11.87;100.00;100084.34;5061557;28;19973;-48
2022/04/28 04:43:38;;;;;;;;;;;;;;;11.88;100.00;100085.19;5062416;28;19920;-48
2022/04/28 04:46:03;;;;;;;;;;;;;;;11.81;100.00;100093.91;5064442;28;19970;-45
2022/04/28 04:48:28;;;;;;;;;;;;;;;11.77;100.00;100089.69;5065320;28;20269;-37
2022/04/28 04:50:55;;;;;;;;;;;;;;;11.89;100.00;100092.94;5066683;28;19988;-37
2022/04/28 04:53:20;;;;;;;;;;;;;;;11.55;100.00;100092.69;5063715;28;19975;-37
2022/04/28 04:55:45;;;;;;;;;;;;;;;11.27;100.00;100103.50;5066057;28;20010;-37
2022/04/28 04:58:10;;;;;;;;;;;;;;;10.69;100.00;100104.41;5067217;28;19924;-37
2022/04/28 05:00:36;;;;;;;;;;;;;;;11.27;100.00;100097.50;5063965;28;19917;-37
2022/04/28 05:03:01;;;;;;;;;;;;;;;11.81;100.00;100109.41;5061908;28;19916;-37
2022/04/28 05:05:26;;;;;;;;;;;;;;;12.16;100.00;100101.00;5061821;28;19987;-37
2022/04/28 05:07:51;;;;;;;;;;;;;;;12.30;100.00;100113.63;5064004;28;19962;-37
2022/04/28 05:10:17;;;;;;;;;;;;;;;12.08;100.00;100114.06;5063418;28;19923;-37
2022/04/28 05:12:42;;;;;;;;;;;;;;;12.23;100.00;100122.38;5066116;28;19924;-37
2022/04/28 05:15:07;;;;;;;;;;;;;;;12.28;100.00;100126.56;5065751;28;19920;-37
2022/04/28 05:17:34;;;;;;;;;;;;;;;12.38;100.00;100122.03;5068211;28;20320;-37
2022/04/28 05:20:00;;;;;;;;;;;;;;;12.57;100.00;100132.84;5068187;28;19916;-37
2022/04/28 05:22:25;;;;;;;;;;;;;;;12.10;100.00;100132.94;5066355;28;20297;-37
2022/04/28 05:24:51;;;;;;;;;;;;;;;12.63;100.00;100129.25;5066738;28;19916;-37
2022/04/28 05:27:16;;;;;;;;;;;;;;;12.65;100.00;100122.31;5067870;28;19917;-37
2022/04/28 05:29:41;;;;;;;;;;;;;;;12.69;100.00;100127.41;5068009;28;19916;-37
2022/04/28 05:32:07;;;;;;;;;;;;;;;13.11;100.00;100129.00;5066484;28;19916;-37
2022/04/28 05:34:32;;;;;;;;;;;;;;;13.24;100.00;100124.38;5066960;28;20035;-37
2022/04/28 05:36:57;;;;;;;;;;;;;;;13.47;100.00;100126.44;5067921;28;19916;-37
2022/04/28 05:39:22;;;;;;;;;;;;;;;13.66;100.00;100131.97;5067649;28;19917;-36
2022/04/28 05:41:48;;;;;;;;;;;;;;;13.83;100.00;100129.78;5066559;28;19916;-37
2022/04/28 05:46:57;;;;;;;;;;;;;;;14.13;100.00;100130.66;5067890;28;19927;-37
2022/04/28 05:49:22;;;;;;;;;;;;;;;14.20;100.00;100132.19;5065517;28;20308;-37
2022/04/28 05:51:48;;;;;;;;;;;;;;;14.18;100.00;100125.34;5068421;28;20003;-37
2022/04/28 05:54:14;;;;;;;;;;;;;;;14.28;100.00;100125.91;5069476;28;20397;-37
2022/04/28 05:56:39;;;;;;;;;;;;;;;13.38;100.00;100143.03;5066345;28;19920;-37
2022/04/28 05:59:05;;;;;;;;;;;;;;;12.94;100.00;100148.34;5068463;28;20373;-37
2022/04/28 06:01:30;;;;;;;;;;;;;;;12.75;100.00;100147.09;5068055;28;19917;-37
2022/04/28 06:03:55;;;;;;;;;;;;;;;12.84;100.00;100152.06;5068561;28;19917;-37
2022/04/28 06:06:21;;;;;;;;;;;;;;;12.49;100.00;100158.00;5067902;28;19920;-44
2022/04/28 06:08:46;;;;;;;;;;;;;;;12.43;100.00;100155.53;5067257;28;20293;-36
2022/04/28 06:11:11;;;;;;;;;;;;;;;13.00;100.00;100152.56;5066551;28;20019;-37
2022/04/28 06:13:37;;;;;;;;;;;;;;;13.74;100.00;100149.00;5064055;28;19966;-37
2022/04/28 06:16:02;;;;;;;;;;;;;;;13.50;100.00;100154.81;5067596;28;20019;-37
2022/04/28 06:18:28;;;;;;;;;;;;;;;13.18;100.00;100156.41;5068037;28;20452;-37
2022/04/28 06:20:53;;;;;;;;;;;;;;;13.12;100.00;100161.75;5067547;28;19916;-37
2022/04/28 06:23:18;;;;;;;;;;;;;;;12.96;100.00;100162.09;5065151;28;19981;-37
2022/04/28 06:25:43;;;;;;;;;;;;;;;12.81;100.00;100167.63;5066306;28;19916;-37
2022/04/28 06:28:13;;;;;;;;;;;;;;;12.68;100.00;100168.78;5066815;28;19920;-37
2022/04/28 06:30:38;;;;;;;;;;;;;;;13.46;100.00;100169.56;5065765;28;19915;-37
2022/04/28 06:33:04;;;;;;;;;;;;;;;13.31;100.00;100165.63;5067095;28;20384;-37
2022/04/28 06:35:29;;;;;;;;;;;;;;;13.78;100.00;100167.91;5065955;28;19916;-37
2022/04/28 06:37:54;;;;;;;;;;;;;;;13.73;100.00;100170.59;5066802;28;19916;-37
2022/04/28 06:40:20;;;;;;;;;;;;;;;13.07;100.00;100168.75;5066627;28;19955;-37
2022/04/28 06:42:49;;;;;;;;;;;;;;;13.47;100.00;100181.63;5064554;28;19916;-37
2022/04/28 06:45:15;;;;;;;;;;;;;;;13.35;100.00;100169.84;5065847;28;19916;-36
2022/04/28 06:47:40;;;;;;;;;;;;;;;14.05;100.00;100181.84;5065573;28;20611;-37
2022/04/28 06:50:05;;;;;;;;;;;;;;;13.87;100.00;100177.16;5066990;28;19916;-37
2022/04/28 06:52:31;;;;;;;;;;;;;;;15.02;100.00;100173.84;5063848;28;20544;-37
2022/04/28 06:54:56;;;;;;;;;;;;;;;14.81;100.00;100183.16;5062674;28;19991;-37
2022/04/28 06:57:21;;;;;;;;;;;;;;;14.50;100.00;100184.00;5063806;28;19968;-37
2022/04/28 06:59:46;;;;;;;;;;;;;;;14.47;100.00;100184.09;5064165;28;19916;-37
2022/04/28 07:02:12;;;;;;;;;;;;;;;14.99;100.00;100181.72;5064171;28;20957;-37
2022/04/28 07:04:37;;;;;;;;;;;;;;;14.84;100.00;100183.03;5062557;28;19916;-37
2022/04/28 07:07:02;;;;;;;;;;;;;;;14.53;100.00;100191.72;5063521;28;19989;-37
2022/04/28 07:09:27;;;;;;;;;;;;;;;14.63;100.00;100189.72;5064813;28;19924;-37
2022/04/28 07:11:53;;;;;;;;;;;;;;;14.25;100.00;100203.75;5065442;28;19918;-37
2022/04/28 07:14:18;;;;;;;;;;;;;;;14.43;100.00;100200.63;5062690;28;19974;-37
2022/04/28 07:16:44;;;;;;;;;;;;;;;15.32;100.00;100189.31;5064570;28;19919;-37
2022/04/28 07:19:09;;;;;;;;;;;;;;;15.59;100.00;100187.56;5065719;28;20786;-37
2022/04/28 07:21:35;;;;;;;;;;;;;;;15.88;100.00;100187.44;5065985;28;19916;-37
2022/04/28 07:24:00;;;;;;;;;;;;;;;15.62;100.00;100196.13;5065703;28;19985;-37
2022/04/28 07:26:25;;;;;;;;;;;;;;;16.00;100.00;100193.13;5064815;28;19946;-37
2022/04/28 07:28:50;;;;;;;;;;;;;;;15.53;100.00;100204.22;5064377;28;20042;-37
2022/04/28 07:31:16;;;;;;;;;;;;;;;15.66;100.00;100205.47;5066650;28;20393;-36
2022/04/28 07:33:41;;;;;;;;;;;;;;;14.70;100.00;100213.72;5063708;28;19973;-37
2022/04/28 07:36:06;;;;;;;;;;;;;;;14.55;100.00;100223.66;5061746;28;19947;-37
2022/04/28 07:38:33;;;;;;;;;;;;;;;14.85;100.00;100213.28;5063993;28;20474;-37
2022/04/28 07:40:59;;;;;;;;;;;;;;;15.25;100.00;100218.06;5066743;28;19916;-37
2022/04/28 07:43:25;;;;;;;;;;;;;;;16.13;100.00;100209.97;5063070;28;19923;-37
2022/04/28 07:45:50;;;;;;;;;;;;;;;16.26;100.00;100212.97;5064178;28;19916;-37
2022/04/28 07:48:16;;;;;;;;;;;;;;;17.13;100.00;100211.47;5063238;28;19916;-37
2022/04/28 07:50:41;;;;;;;;;;;;;;;16.60;100.00;100215.19;5062869;28;19927;-37
2022/04/28 07:53:06;;;;;;;;;;;;;;;16.88;100.00;100212.44;5064690;28;19917;-37
2022/04/28 07:55:31;;;;;;;;;;;;;;;17.14;100.00;100211.41;5065034;28;19921;-37
2022/04/28 07:57:56;;;;;;;;;;;;;;;17.67;100.00;100204.06;5064163;28;19916;-37
2022/04/28 08:00:22;;;;;;;;;;;;;;;17.70;96.69;100204.78;5061532;28;19912;-37
2022/04/28 08:02:47;;;;;;;;;;;;;;;17.66;96.69;100202.38;5059418;28;20519;-37
2022/04/28 08:05:12;;;;;;;;;;;;;;;18.45;91.58;100207.66;5062297;28;19982;-37
2022/04/28 08:07:37;;;;;;;;;;;;;;;18.06;93.67;100206.75;5063380;28;19979;-37
2022/04/28 08:10:04;;;;;;;;;;;;;;;17.71;96.98;100205.63;5062982;28;19999;-37
2022/04/28 08:12:29;;;;;;;;;;;;;;;17.08;100.00;100216.00;5063325;28;20042;-37
2022/04/28 08:14:54;;;;;;;;;;;;;;;17.37;100.00;100217.44;5060404;28;19927;-37
2022/04/28 08:17:19;;;;;;;;;;;;;;;17.59;97.68;100217.41;5062929;28;19923;-37
2022/04/28 08:19:45;;;;;;;;;;;;;;;16.62;100.00;100241.16;5062803;28;19916;-37
2022/04/28 08:22:10;;;;;;;;;;;;;;;17.51;100.00;100228.13;5060560;28;20454;-37
2022/04/28 08:24:35;;;;;;;;;;;;;;;16.06;100.00;100234.50;5060154;28;19912;-37
2022/04/28 08:27:00;;;;;;;;;;;;;;;18.07;100.00;100223.25;5062990;28;19962;-37
2022/04/28 08:29:26;;;;;;;;;;;;;;;18.41;96.85;100221.78;5064823;28;20005;-37
2022/04/28 08:31:51;;;;;;;;;;;;;;;18.52;100.00;100224.72;5060398;28;20494;-37
2022/04/28 08:34:19;;;;;;;;;;;;;;;17.77;100.00;100221.84;5061256;28;20285;-37
2022/04/28 08:36:45;;;;;;;;;;;;;;;18.80;98.50;100219.97;5063802;28;19916;-37
2022/04/28 08:39:10;;;;;;;;;;;;;;;19.18;93.47;100213.84;5062025;28;19919;-37
2022/04/28 08:41:36;;;;;;;;;;;;;;;19.53;93.81;100219.13;5062413;28;19916;-37
2022/04/28 08:44:02;;;;;;;;;;;;;;;20.20;86.45;100225.31;5059901;28;19920;-37
2022/04/28 08:49:12;;;;;;;;;;;;;;;17.17;100.00;100240.81;5062059;28;19923;-37
2022/04/28 08:51:37;;;;;;;;;;;;;;;18.50;100.00;100237.00;5061406;28;19942;-37
2022/04/28 08:54:03;;;;;;;;;;;;;;;19.27;97.77;100238.66;5061333;28;19927;-37
2022/04/28 08:56:28;;;;;;;;;;;;;;;18.64;99.15;100242.44;5061325;28;20422;-41
2022/04/28 08:58:54;;;;;;;;;;;;;;;19.60;94.42;100233.56;5067974;28;19916;-37
2022/04/28 09:01:22;;;;;;;;;;;;;;;18.34;99.91;100248.13;5060215;28;19916;-37
2022/04/28 09:03:48;;;;;;;;;;;;;;;18.83;100.00;100244.25;5063838;28;19923;-37
2022/04/28 09:06:20;;;;;;;;;;;;;;;16.93;100.00;100254.72;5062684;28;19916;-37
2022/04/28 09:08:45;;;;;;;;;;;;;;;19.56;95.70;100239.88;5064659;28;19916;-37
2022/04/28 09:11:16;;;;;;;;;;;;;;;18.30;95.85;100246.56;5059930;28;19927;-36
2022/04/28 09:16:25;;;;;;;;;;;;;;;18.61;95.34;100247.81;5060246;28;20012;-37
2022/04/28 09:18:53;;;;;;;;;;;;;;;18.00;100.00;100259.16;5061733;28;19920;-37
2022/04/28 09:21:19;;;;;;;;;;;;;;;17.75;100.00;100259.31;5059855;28;20004;-37
2022/04/28 09:23:44;;;;;;;;;;;;;;;18.31;100.00;100260.44;5059966;28;19927;-37
2022/04/28 09:26:10;;;;;;;;;;;;;;;18.81;96.00;100257.34;5063764;28;19920;-37
2022/04/28 09:28:36;;;;;;;;;;;;;;;18.73;96.41;100256.84;5060429;28;19923;-37
2022/04/28 09:31:01;;;;;;;;;;;;;;;19.13;95.02;100249.78;5058972;28;19920;-37
2022/04/28 09:33:26;;;;;;;;;;;;;;;18.54;100.00;100254.19;5059666;28;19923;-37
2022/04/28 09:35:52;;;;;;;;;;;;;;;19.50;100.00;100250.63;5059275;28;19970;-37
2022/04/28 09:38:18;;;;;;;;;;;;;;;19.43;86.58;100235.25;5061086;28;19973;-37
2022/04/28 09:43:27;;;;;;;;;;;;;;;18.90;92.94;100237.81;5057819;28;19939;-37
2022/04/28 09:45:54;;;;;;;;;;;;;;;18.69;91.97;100237.84;5060008;28;20393;-36
2022/04/28 09:48:19;;;;;;;;;;;;;;;20.15;90.79;100237.81;5059337;28;19915;-37
2022/04/28 09:50:44;;;;;;;;;;;;;;;18.80;87.73;100240.00;5061796;28;19923;-37
2022/04/28 09:53:11;;;;;;;;;;;;;;;19.08;91.57;100234.34;5060341;28;20020;-37
2022/04/28 09:55:36;;;;;;;;;;;;;;;20.26;85.85;100219.78;5057423;28;20343;-37
2022/04/28 09:58:02;;;;;;;;;;;;;;;20.52;79.86;100226.22;5060918;28;19916;-37
2022/04/28 10:00:27;;;;;;;;;;;;;;;19.62;80.90;100224.72;5067926;28;19916;-36
2022/04/28 10:02:54;;;;;;;;;;;;;;;19.67;88.79;100226.28;5062032;28;19916;-37
2022/04/28 10:05:20;;;;;;;;;;;;;;;20.29;82.94;100219.59;5066084;28;20702;-37
2022/04/28 10:07:46;;;;;;;;;;;;;;;19.51;88.77;100227.03;5067320;28;20003;-37
2022/04/28 10:10:11;;;;;;;;;;;;;;;19.16;87.69;100213.94;5063297;28;19943;-37
2022/04/28 10:12:36;;;;;;;;;;;;;;;18.67;88.77;100212.75;5059974;28;20010;-36
2022/04/28 10:15:04;;;;;;;;;;;;;;;21.42;84.16;100207.34;5065818;28;19956;-36
2022/04/28 10:17:40;;;;;;;;;;;;;;;20.94;72.62;100201.28;5066670;28;19916;-36
2022/04/28 10:20:08;;;;;;;;;;;;;;;18.99;81.88;100224.31;5061645;28;19923;-36
2022/04/28 10:22:34;;;;;;;;;;;;;;;19.67;77.97;100211.44;5064615;28;20565;-36
2022/04/28 10:33:14;;;;;;;;;;;;;;;20.77;76.72;100209.22;5068749;28;19928;-36
2022/04/28 10:35:42;;;;;;;;;;;;;;;21.25;73.15;100213.50;5066644;28;19970;-36
2022/04/28 10:38:11;;;;;;;;;;;;;;;20.05;82.44;100212.13;5065698;28;20021;-36
2022/04/28 10:40:37;;;;;;;;;;;;;;;21.33;69.22;100213.06;5066557;28;19916;-36
2022/04/28 10:43:02;;;;;;;;;;;;;;;21.81;72.95;100215.56;5065901;28;19978;-36
2022/04/28 10:45:29;;;;;;;;;;;;;;;22.74;66.82;100209.03;5062783;28;20027;-36
2022/04/28 10:48:30;;;;;;;;;;;;;;;21.72;63.11;100214.34;5065265;28;19926;-36
2022/04/28 10:51:12;;;;;;;;;;;;;;;22.48;66.10;100208.88;5021210;28;19963;-36
2022/04/28 10:54:01;;;;;;;;;;;;;;;22.01;72.49;100206.50;5056435;28;19920;-36
2022/04/28 10:56:30;;;;;;;;;;;;;;;21.96;70.68;100204.16;5068028;28;20028;-36
2022/04/28 10:58:59;;;;;;;;;;;;;;;20.53;80.57;100204.38;5060558;28;19974;-36
2022/04/28 11:01:33;;;;;;;;;;;;;;;20.64;75.79;100198.56;5064771;28;19916;-36
2022/04/28 11:03:59;;;;;;;;;;;;;;;20.03;83.27;100206.13;5059753;28;19920;-36
2022/04/28 11:06:37;;;;;;;;;;;;;;;22.22;79.22;100196.53;5062498;28;20124;-36
2022/04/28 11:09:03;;;;;;;;;;;;;;;21.80;69.76;100200.75;5064487;28;19944;-36
2022/04/28 11:11:45;;;;;;;;;;;;;;;22.57;69.71;100196.13;5062915;28;19920;-36
2022/04/28 11:14:10;;;;;;;;;;;;;;;20.38;73.69;100203.41;5063429;28;19924;-36
2022/04/28 11:16:35;;;;;;;;;;;;;;;21.23;75.26;100202.28;5065558;28;20260;-36
2022/04/28 11:19:05;;;;;;;;;;;;;;;22.16;64.03;100202.13;5059841;28;19921;-36
2022/04/28 11:21:30;;;;;;;;;;;;;;;22.20;67.46;100198.38;5063789;28;19916;-36
2022/04/28 11:23:57;;;;;;;;;;;;;;;22.17;62.92;100194.16;5065488;28;19974;-36
2022/04/28 11:26:24;;;;;;;;;;;;;;;22.92;63.37;100197.34;5062223;28;20844;-36
2022/04/28 11:28:49;;;;;;;;;;;;;;;22.54;57.86;100192.75;5063307;28;20434;-37
2022/04/28 11:31:17;;;;;;;;;;;;;;;23.38;64.18;100194.38;5062362;28;19932;-36
2022/04/28 11:33:43;;;;;;;;;;;;;;;21.83;70.68;100205.84;5063632;28;19924;-36
2022/04/28 11:36:18;;;;;;;;;;;;;;;23.82;60.27;100186.28;5062133;28;19959;-36
2022/04/28 11:38:50;;;;;;;;;;;;;;;23.70;58.54;100198.44;5062586;28;19920;-36
2022/04/28 11:41:15;;;;;;;;;;;;;;;22.58;63.21;100197.78;5064785;28;19928;-36
2022/04/28 11:43:40;;;;;;;;;;;;;;;21.86;67.14;100203.88;5061750;28;20569;-36
2022/04/28 11:46:07;;;;;;;;;;;;;;;21.43;74.52;100203.75;5062505;28;19959;-36
2022/04/28 11:48:34;;;;;;;;;;;;;;;21.06;70.53;100194.53;5060339;28;19959;-36
2022/04/28 11:51:05;;;;;;;;;;;;;;;20.30;81.86;100205.63;5062604;28;19920;-36
2022/04/28 11:53:41;;;;;;;;;;;;;;;20.52;81.76;100194.00;5060291;28;19924;-36
2022/04/28 11:56:13;;;;;;;;;;;;;;;21.07;80.65;100191.81;5062236;28;19919;-36
2022/04/28 11:58:38;;;;;;;;;;;;;;;21.52;69.84;100190.13;5062462;28;20346;-36
2022/04/28 12:01:03;;;;;;;;;;;;;;;22.78;62.86;100189.50;5061441;28;19920;-36
2022/04/28 12:03:30;;;;;;;;;;;;;;;22.61;54.45;100189.75;5058531;28;19920;-36
2022/04/28 12:05:56;;;;;;;;;;;;;;;24.80;58.42;100182.03;5061795;28;19978;-36
2022/04/28 12:08:22;;;;;;;;;;;;;;;24.53;56.37;100183.03;5063670;28;20077;-36
2022/04/28 12:16:16;;;;;;;;;;;;;;;23.72;56.75;100186.88;5060772;28;19927;-36
2022/04/28 12:21:32;;;;;;;;;;;;;;;22.94;57.49;100184.97;5059325;28;19931;-36
2022/04/28 12:23:58;;;;;;;;;;;;;;;21.68;63.95;100187.44;5061303;28;20367;-37
2022/04/28 12:26:24;;;;;;;;;;;;;;;21.54;61.95;100184.81;5059233;28;19920;-37
2022/04/28 12:28:49;;;;;;;;;;;;;;;20.98;58.59;100183.63;5057031;28;20017;-37
2022/04/28 12:31:16;;;;;;;;;;;;;;;22.69;60.45;100190.94;5058162;28;19916;-37
2022/04/28 12:33:41;;;;;;;;;;;;;;;23.18;56.40;100181.72;5062426;28;19923;-37
2022/04/28 12:36:11;;;;;;;;;;;;;;;25.42;59.47;100186.28;5060702;28;19950;-37
2022/04/28 12:38:36;;;;;;;;;;;;;;;22.16;69.43;100194.25;5064596;28;20385;-37
2022/04/28 12:41:12;;;;;;;;;;;;;;;23.64;61.55;100168.13;5060862;28;19924;-37
2022/04/28 12:43:42;;;;;;;;;;;;;;;23.65;53.61;100172.44;5059886;28;19923;-37
2022/04/28 12:46:08;;;;;;;;;;;;;;;24.88;52.58;100179.66;5061798;28;19987;-37
2022/04/28 12:48:35;;;;;;;;;;;;;;;23.89;50.16;100171.75;5060378;28;20749;-37
2022/04/28 12:51:14;;;;;;;;;;;;;;;23.89;56.37;100172.56;5058989;28;19928;-37
2022/04/28 12:53:40;;;;;;;;;;;;;;;25.30;51.44;100174.00;5062263;28;19920;-37
2022/04/28 12:56:13;;;;;;;;;;;;;;;22.77;58.49;100183.41;5060120;28;20022;-37
2022/04/28 12:58:39;;;;;;;;;;;;;;;24.11;59.12;100171.94;5061928;28;20748;-37
2022/04/28 13:01:07;;;;;;;;;;;;;;;23.88;54.41;100170.03;5060840;28;20625;-37
2022/04/28 13:03:33;;;;;;;;;;;;;;;23.82;56.98;100170.47;5057122;28;20376;-37